Terminal Aerodrome Forecast
Issued by NWS

Home | Current Version | Previous Version | Text Only | Print | Product List | Glossary On
Versions: 1 2 3 4 5 6 7 8 9 10 11 12 13 14 15 16 17
000
FTUS44 KLZK 060531
TAFHOT
TAF
KHOT 060531Z 0606/0706 VRB05KT P6SM -RA VCTS BKN008 OVC015CB
      TEMPO 0606/0609 1SM -SHRA BR OVC004
     FM060900 30007KT 3SM BR VCSH OVC005
     FM061200 33005KT 4SM -DZ BR OVC015
     FM061900 35007KT P6SM SCT015 OVC250=

USA.gov is the U.S. government's official web portal to all federal, state and local government web resources and services.